Terminal Aerodrome Forecast
Issued by NWS

Home | Current Version | Previous Version | Text Only | Print | Product List | Glossary On
Versions: 1 2 3 4 5 6 7 8 9 10 11 12 13 14 15
000
FTAK31 PAJN 211700
TAFASI
TAF
PASI 211731Z 2118/2218 VRB04KT P6SM VCSH BKN035 BKN060
     FM220000 21005KT P6SM VCSH OVC040
     FM220800 13005KT P6SM -SHRA SCT025 OVC035=

USA.gov is the U.S. government's official web portal to all federal, state and local government web resources and services.